Time;durP1;ratioP1;P1;durP2;ratioP2;P2;SDS_P1;SDS_P2;PMS_P1;PMS_P2;Temp;Humidity;BMP_temperature;BMP_pressure;BME280_temperature;BME280_humidity;BME280_pressure;Samples;Min_cycle;Max_cycle;Signal;HPM_P1;HPM_P2
2021/12/02 00:01:10;;;;;;;1.30;0.13;;;;;;;;;;5037362;28;20021;-66
2021/12/02 00:03:36;;;;;;;0.10;0.10;;;;;;;;;;5055195;28;20049;-66
2021/12/02 00:06:02;;;;;;;1.20;0.10;;;;;;;;;;5055218;28;20415;-66
2021/12/02 00:08:27;;;;;;;0.63;0.10;;;;;;;;;;5054969;28;20021;-66
2021/12/02 00:10:53;;;;;;;1.23;0.20;;;;;;;;;;5055190;28;20029;-66
2021/12/02 00:13:22;;;;;;;1.45;0.57;;;;;;;;;;5055010;28;20047;-66
2021/12/02 00:15:55;;;;;;;0.52;0.20;;;;;;;;;;5055238;28;20021;-66
2021/12/02 00:21:05;;;;;;;0.30;0.20;;;;;;;;;;5055311;28;20025;-67
2021/12/02 00:23:32;;;;;;;0.60;0.00;;;;;;;;;;5055193;28;20403;-66
2021/12/02 00:25:58;;;;;;;0.88;0.52;;;;;;;;;;5054921;28;20380;-66
2021/12/02 00:28:25;;;;;;;0.65;0.10;;;;;;;;;;5054963;28;20024;-66
2021/12/02 00:30:50;;;;;;;2.45;0.20;;;;;;;;;;5054365;28;20068;-66
2021/12/02 00:33:16;;;;;;;0.28;0.10;;;;;;;;;;5036798;28;20579;-66
2021/12/02 00:35:43;;;;;;;2.15;0.30;;;;;;;;;;5054814;28;20025;-67
2021/12/02 00:38:08;;;;;;;0.85;0.10;;;;;;;;;;5036554;28;20021;-67
2021/12/02 00:40:34;;;;;;;0.98;0.17;;;;;;;;;;5054667;28;20379;-68
2021/12/02 00:42:59;;;;;;;1.95;0.30;;;;;;;;;;5054571;28;20550;-68
2021/12/02 00:45:26;;;;;;;1.02;0.20;;;;;;;;;;5054449;28;20538;-67
2021/12/02 00:47:51;;;;;;;0.98;0.05;;;;;;;;;;5054513;28;20052;-66
2021/12/02 00:50:17;;;;;;;0.70;0.08;;;;;;;;;;5054172;28;20063;-66
2021/12/02 00:52:42;;;;;;;0.77;0.10;;;;;;;;;;5054371;28;20025;-66
2021/12/02 00:55:08;;;;;;;1.25;0.13;;;;;;;;;;5054135;28;20021;-66
2021/12/02 00:57:33;;;;;;;0.30;0.20;;;;;;;;;;5054564;28;20021;-67
2021/12/02 00:59:59;;;;;;;2.50;0.20;;;;;;;;;;5036306;28;20102;-66
2021/12/02 01:02:25;;;;;;;0.52;0.10;;;;;;;;;;5053966;28;20416;-66
2021/12/02 01:04:51;;;;;;;0.95;0.20;;;;;;;;;;5054146;28;20411;-67
2021/12/02 01:07:16;;;;;;;0.60;0.10;;;;;;;;;;5054008;28;20048;-66
2021/12/02 01:09:41;;;;;;;0.95;0.03;;;;;;;;;;5054063;28;20060;-66
2021/12/02 01:12:07;;;;;;;0.90;0.30;;;;;;;;;;5053923;28;20025;-66
2021/12/02 01:14:32;;;;;;;0.13;0.00;;;;;;;;;;5053959;28;20058;-66
2021/12/02 01:16:57;;;;;;;0.63;0.10;;;;;;;;;;5054047;28;20052;-66
2021/12/02 01:19:22;;;;;;;0.10;0.10;;;;;;;;;;5035875;28;20155;-66
2021/12/02 01:21:48;;;;;;;0.88;0.20;;;;;;;;;;5054007;28;20265;-65
2021/12/02 01:24:14;;;;;;;0.30;0.17;;;;;;;;;;5053620;28;20384;-66
2021/12/02 01:26:40;;;;;;;1.05;0.10;;;;;;;;;;5053774;28;20017;-66
2021/12/02 01:29:05;;;;;;;1.75;0.10;;;;;;;;;;5053770;28;20028;-66
2021/12/02 01:31:32;;;;;;;0.20;0.10;;;;;;;;;;5053634;28;20017;-66
2021/12/02 01:34:00;;;;;;;0.77;0.17;;;;;;;;;;5053626;28;20017;-66
2021/12/02 01:36:26;;;;;;;1.73;0.70;;;;;;;;;;5053441;28;20049;-66
2021/12/02 01:38:52;;;;;;;0.63;0.10;;;;;;;;;;5053559;28;20056;-66
2021/12/02 01:41:17;;;;;;;1.30;0.10;;;;;;;;;;5053382;28;20457;-66
2021/12/02 01:43:49;;;;;;;0.60;0.20;;;;;;;;;;5052442;28;20028;-66
2021/12/02 01:46:16;;;;;;;0.45;0.00;;;;;;;;;;5053199;28;20281;-66
2021/12/02 01:48:43;;;;;;;0.30;0.17;;;;;;;;;;5053345;28;20483;-66
2021/12/02 01:51:13;;;;;;;0.65;0.10;;;;;;;;;;5053315;28;20541;-66
2021/12/02 01:53:39;;;;;;;1.13;0.22;;;;;;;;;;5035424;28;20020;-66
2021/12/02 01:56:10;;;;;;;1.00;0.10;;;;;;;;;;5053217;28;20053;-66
2021/12/02 01:58:41;;;;;;;0.45;0.10;;;;;;;;;;5053153;28;20032;-66
2021/12/02 02:03:44;;;;;;;2.47;0.30;;;;;;;;;;5069793;28;20371;-65
2021/12/02 02:06:10;;;;;;;0.30;0.00;;;;;;;;;;5069488;28;20029;-65
2021/12/02 02:08:36;;;;;;;0.28;0.20;;;;;;;;;;5068143;28;20031;-64
2021/12/02 02:11:02;;;;;;;1.83;0.30;;;;;;;;;;5069664;28;20433;-65
2021/12/02 02:13:27;;;;;;;0.53;0.10;;;;;;;;;;5069406;28;20055;-65
2021/12/02 02:15:53;;;;;;;0.88;0.20;;;;;;;;;;5069347;28;20248;-65
2021/12/02 02:18:22;;;;;;;0.82;0.03;;;;;;;;;;5069201;28;20029;-65
2021/12/02 02:20:59;;;;;;;1.25;0.10;;;;;;;;;;5069390;28;20101;-65
2021/12/02 02:23:26;;;;;;;1.55;0.20;;;;;;;;;;5069158;28;20444;-65
2021/12/02 02:25:51;;;;;;;0.63;0.15;;;;;;;;;;5069443;28;20013;-65
2021/12/02 02:28:16;;;;;;;0.30;0.10;;;;;;;;;;5068983;28;20422;-65
2021/12/02 02:30:42;;;;;;;0.45;0.10;;;;;;;;;;5069265;28;20254;-65
2021/12/02 02:33:07;;;;;;;1.08;0.47;;;;;;;;;;5069034;28;20024;-66
2021/12/02 02:35:32;;;;;;;0.05;0.03;;;;;;;;;;5069082;28;20021;-65
2021/12/02 02:38:00;;;;;;;1.95;0.20;;;;;;;;;;5069063;28;20048;-65
2021/12/02 02:40:25;;;;;;;0.47;0.10;;;;;;;;;;5068757;28;20020;-65
2021/12/02 02:42:56;;;;;;;0.53;0.20;;;;;;;;;;5068815;28;20535;-65
2021/12/02 02:45:21;;;;;;;0.45;0.00;;;;;;;;;;5068757;28;20238;-65
2021/12/02 02:47:46;;;;;;;0.23;0.07;;;;;;;;;;5068991;28;20349;-65
2021/12/02 02:50:13;;;;;;;1.77;0.17;;;;;;;;;;5068623;28;20308;-65
2021/12/02 02:52:38;;;;;;;0.68;0.22;;;;;;;;;;5067392;28;20456;-68
2021/12/02 02:55:03;;;;;;;0.70;0.10;;;;;;;;;;5068765;28;20036;-66
2021/12/02 02:57:30;;;;;;;0.75;0.10;;;;;;;;;;5068520;28;20027;-67
2021/12/02 03:00:09;;;;;;;0.32;0.10;;;;;;;;;;5068654;28;20029;-65
2021/12/02 03:12:40;;;;;;;0.95;0.15;;;;;;;;;;5068522;28;20678;-65
2021/12/02 03:17:31;;;;;;;0.47;0.08;;;;;;;;;;5055335;28;20095;-65
2021/12/02 03:19:57;;;;;;;0.70;0.13;;;;;;;;;;5055011;28;20103;-65
2021/12/02 03:22:22;;;;;;;0.45;0.10;;;;;;;;;;5055002;28;20033;-66
2021/12/02 03:24:47;;;;;;;0.80;0.22;;;;;;;;;;5054883;28;20032;-65
2021/12/02 03:27:13;;;;;;;1.60;0.10;;;;;;;;;;5054748;28;20065;-65
2021/12/02 03:29:39;;;;;;;0.17;0.17;;;;;;;;;;5054806;28;20014;-65
2021/12/02 03:32:04;;;;;;;0.85;0.08;;;;;;;;;;5054687;28;20028;-66
2021/12/02 03:34:29;;;;;;;0.08;0.05;;;;;;;;;;5054667;28;20602;-66
2021/12/02 03:36:55;;;;;;;0.20;0.10;;;;;;;;;;5054640;28;20029;-66
2021/12/02 03:39:20;;;;;;;0.80;0.10;;;;;;;;;;5054507;28;20249;-66
2021/12/02 03:41:45;;;;;;;1.10;0.35;;;;;;;;;;5054548;28;20678;-66
2021/12/02 03:44:11;;;;;;;0.82;0.17;;;;;;;;;;5054290;28;20021;-67
2021/12/02 03:46:37;;;;;;;0.63;0.10;;;;;;;;;;5054391;28;20025;-67
2021/12/02 03:49:03;;;;;;;0.30;0.25;;;;;;;;;;5054414;28;20099;-67
2021/12/02 03:51:28;;;;;;;0.32;0.10;;;;;;;;;;5054305;28;20104;-67
2021/12/02 03:53:53;;;;;;;0.73;0.32;;;;;;;;;;5054416;28;20100;-67
2021/12/02 03:56:19;;;;;;;1.55;0.20;;;;;;;;;;5054132;28;20083;-66
2021/12/02 03:58:45;;;;;;;1.02;0.10;;;;;;;;;;5054252;28;20481;-66
2021/12/02 04:01:11;;;;;;;0.22;0.13;;;;;;;;;;5054127;28;20025;-66
2021/12/02 04:03:36;;;;;;;2.67;0.45;;;;;;;;;;5053936;28;20102;-66
2021/12/02 04:06:02;;;;;;;0.15;0.00;;;;;;;;;;5054177;28;20448;-66
2021/12/02 04:08:49;;;;;;;0.30;0.13;;;;;;;;;;5053933;28;20456;-66
2021/12/02 04:12:02;;;;;;;0.80;0.10;;;;;;;;;;5053863;28;20013;-66
2021/12/02 04:14:23;;;;;;;0.40;0.10;;;;;;;;;;5050774;28;20031;-66
2021/12/02 04:16:58;;;;;;;0.50;0.20;;;;;;;;;;5053967;28;20035;-66
2021/12/02 04:19:24;;;;;;;0.75;0.30;;;;;;;;;;5053699;28;20241;-66
2021/12/02 04:21:49;;;;;;;0.05;0.05;;;;;;;;;;5052614;28;20020;-65
2021/12/02 04:24:14;;;;;;;0.30;0.20;;;;;;;;;;5053576;28;20033;-66
2021/12/02 04:26:40;;;;;;;0.63;0.10;;;;;;;;;;5052819;28;20045;-66
2021/12/02 04:29:06;;;;;;;1.27;0.17;;;;;;;;;;5053657;28;20017;-66
2021/12/02 04:31:31;;;;;;;0.32;0.10;;;;;;;;;;5053610;28;20063;-65
2021/12/02 04:33:56;;;;;;;0.70;0.20;;;;;;;;;;5053643;28;20048;-66
2021/12/02 04:36:21;;;;;;;0.33;0.13;;;;;;;;;;5053419;28;20381;-66
2021/12/02 04:38:46;;;;;;;0.20;0.10;;;;;;;;;;5053546;28;20277;-66
2021/12/02 04:41:13;;;;;;;1.27;0.10;;;;;;;;;;5053336;28;20706;-66
2021/12/02 04:43:38;;;;;;;0.55;0.10;;;;;;;;;;5053279;28;20025;-66
2021/12/02 04:46:04;;;;;;;1.90;0.20;;;;;;;;;;5053241;28;20489;-66
2021/12/02 04:48:29;;;;;;;2.77;0.10;;;;;;;;;;5053237;28;20257;-66
2021/12/02 04:50:54;;;;;;;0.60;0.10;;;;;;;;;;5053238;28;20286;-66
2021/12/02 04:53:19;;;;;;;0.63;0.10;;;;;;;;;;5052857;28;20265;-66
2021/12/02 04:55:44;;;;;;;0.70;0.20;;;;;;;;;;5053487;28;20258;-66
2021/12/02 04:58:10;;;;;;;0.85;0.22;;;;;;;;;;5053222;28;20021;-65
2021/12/02 05:00:35;;;;;;;1.02;0.13;;;;;;;;;;5053032;28;20020;-65
2021/12/02 05:03:00;;;;;;;0.80;0.20;;;;;;;;;;5052850;28;20087;-65
2021/12/02 05:05:26;;;;;;;0.05;0.05;;;;;;;;;;5052921;28;20035;-65
2021/12/02 05:07:53;;;;;;;0.65;0.20;;;;;;;;;;5053052;28;20057;-66
2021/12/02 05:10:19;;;;;;;0.43;0.10;;;;;;;;;;5052672;28;20024;-65
2021/12/02 05:12:44;;;;;;;1.63;0.03;;;;;;;;;;5052744;28;20021;-66
2021/12/02 05:15:09;;;;;;;0.43;0.10;;;;;;;;;;5052799;28;20070;-66
2021/12/02 05:17:34;;;;;;;0.90;0.13;;;;;;;;;;5052802;28;20277;-66
2021/12/02 05:19:59;;;;;;;0.10;0.10;;;;;;;;;;5052715;28;20032;-67
2021/12/02 05:22:25;;;;;;;0.20;0.10;;;;;;;;;;5052473;28;20301;-67
2021/12/02 05:24:50;;;;;;;0.10;0.10;;;;;;;;;;5052697;28;20461;-67
2021/12/02 05:27:15;;;;;;;0.90;0.27;;;;;;;;;;5052792;28;20265;-66
2021/12/02 05:29:41;;;;;;;1.15;0.20;;;;;;;;;;5052661;28;20047;-66
2021/12/02 05:32:06;;;;;;;0.20;0.10;;;;;;;;;;5052388;28;20032;-65
2021/12/02 05:34:31;;;;;;;1.25;0.10;;;;;;;;;;5052501;28;20037;-66
2021/12/02 05:36:57;;;;;;;0.60;0.10;;;;;;;;;;5052283;28;20013;-66
2021/12/02 05:39:22;;;;;;;0.70;0.17;;;;;;;;;;5052275;28;20680;-66
2021/12/02 05:41:47;;;;;;;0.28;0.00;;;;;;;;;;5052424;28;20281;-65
2021/12/02 05:44:12;;;;;;;1.25;0.50;;;;;;;;;;5052138;28;20052;-66
2021/12/02 05:46:37;;;;;;;0.40;0.10;;;;;;;;;;5052309;28;20029;-67
2021/12/02 05:49:03;;;;;;;0.82;0.20;;;;;;;;;;5052416;28;20337;-67
2021/12/02 05:51:28;;;;;;;0.40;0.10;;;;;;;;;;5052147;28;20040;-66
2021/12/02 05:53:53;;;;;;;1.43;0.10;;;;;;;;;;5052418;28;20047;-66
2021/12/02 05:56:19;;;;;;;0.43;0.10;;;;;;;;;;5051975;28;20261;-66
2021/12/02 05:58:44;;;;;;;0.73;0.10;;;;;;;;;;5052535;28;20078;-66
2021/12/02 06:01:09;;;;;;;0.93;0.10;;;;;;;;;;5050865;28;20017;-66
2021/12/02 06:03:36;;;;;;;0.35;0.22;;;;;;;;;;5052004;28;20281;-66
2021/12/02 06:06:02;;;;;;;0.68;0.10;;;;;;;;;;5052130;28;20062;-66
2021/12/02 06:08:27;;;;;;;1.38;0.17;;;;;;;;;;5052196;28;20111;-66
2021/12/02 06:10:52;;;;;;;0.22;0.10;;;;;;;;;;5052161;28;20024;-66
2021/12/02 06:13:18;;;;;;;1.00;0.10;;;;;;;;;;5051911;28;20041;-66
2021/12/02 06:15:43;;;;;;;0.65;0.30;;;;;;;;;;5051997;28;20311;-66
2021/12/02 06:18:08;;;;;;;0.70;0.10;;;;;;;;;;5051913;28;20021;-66
2021/12/02 06:20:33;;;;;;;0.10;0.10;;;;;;;;;;5051977;28;20336;-66
2021/12/02 06:22:59;;;;;;;0.40;0.00;;;;;;;;;;5052210;28;20464;-66
2021/12/02 06:27:53;;;;;;;1.57;0.27;;;;;;;;;;5052127;28;20321;-65
2021/12/02 06:30:23;;;;;;;0.15;0.10;;;;;;;;;;5051736;28;20277;-65
2021/12/02 06:32:48;;;;;;;0.80;0.10;;;;;;;;;;5052187;28;20029;-65
2021/12/02 06:35:13;;;;;;;0.52;0.10;;;;;;;;;;5051709;28;20021;-66
2021/12/02 06:37:39;;;;;;;0.60;0.10;;;;;;;;;;5051937;28;20021;-65
2021/12/02 06:40:04;;;;;;;0.93;0.10;;;;;;;;;;5051783;28;20025;-65
2021/12/02 06:42:30;;;;;;;0.05;0.00;;;;;;;;;;5051580;28;20049;-65
2021/12/02 06:44:57;;;;;;;0.22;0.08;;;;;;;;;;5050558;28;20048;-65
2021/12/02 06:47:27;;;;;;;0.10;0.10;;;;;;;;;;5051676;28;20380;-65
2021/12/02 06:49:52;;;;;;;0.55;0.10;;;;;;;;;;5054623;28;20017;-65
2021/12/02 06:52:17;;;;;;;0.45;0.10;;;;;;;;;;5055326;28;20032;-66
2021/12/02 06:54:43;;;;;;;0.55;0.20;;;;;;;;;;5055552;28;20048;-66
2021/12/02 06:57:08;;;;;;;1.00;0.22;;;;;;;;;;5054112;28;20043;-65
2021/12/02 06:59:33;;;;;;;1.50;0.40;;;;;;;;;;5055427;28;20029;-66
2021/12/02 07:01:58;;;;;;;1.00;0.22;;;;;;;;;;5055124;28;20277;-65
2021/12/02 07:04:24;;;;;;;0.95;0.10;;;;;;;;;;5055355;28;20031;-65
2021/12/02 07:06:49;;;;;;;0.30;0.10;;;;;;;;;;5055311;28;20013;-65
2021/12/02 07:09:14;;;;;;;0.13;0.10;;;;;;;;;;5055096;28;20713;-65
2021/12/02 07:11:39;;;;;;;0.05;0.05;;;;;;;;;;5036292;28;20267;-66
2021/12/02 07:14:11;;;;;;;1.88;0.17;;;;;;;;;;5034764;28;20045;-65
2021/12/02 07:16:38;;;;;;;1.27;0.30;;;;;;;;;;5034995;28;20023;-66
2021/12/02 07:19:04;;;;;;;0.85;0.10;;;;;;;;;;5035090;28;20018;-66
2021/12/02 07:21:30;;;;;;;0.73;0.10;;;;;;;;;;5034916;28;20013;-66
2021/12/02 07:23:56;;;;;;;0.20;0.17;;;;;;;;;;5040325;28;20025;-66
2021/12/02 07:26:21;;;;;;;0.10;0.00;;;;;;;;;;5042965;28;20014;-67
2021/12/02 07:28:46;;;;;;;0.60;0.17;;;;;;;;;;5041386;28;20315;-66
2021/12/02 07:31:12;;;;;;;0.68;0.10;;;;;;;;;;5039558;28;20049;-66
2021/12/02 07:33:38;;;;;;;1.17;0.10;;;;;;;;;;5044435;28;20026;-66
2021/12/02 07:36:04;;;;;;;0.57;0.10;;;;;;;;;;5046741;28;20468;-66
2021/12/02 07:38:29;;;;;;;0.82;0.20;;;;;;;;;;5052677;28;20031;-66
2021/12/02 07:40:58;;;;;;;1.00;0.30;;;;;;;;;;5040545;28;20064;-65
2021/12/02 07:43:24;;;;;;;0.10;0.10;;;;;;;;;;5036361;28;20120;-65
2021/12/02 07:45:49;;;;;;;0.53;0.10;;;;;;;;;;5037834;28;20100;-65
2021/12/02 07:48:16;;;;;;;0.98;0.50;;;;;;;;;;5040110;28;20283;-65
2021/12/02 07:50:41;;;;;;;0.17;0.10;;;;;;;;;;5045715;28;20040;-65
2021/12/02 07:53:07;;;;;;;0.10;0.00;;;;;;;;;;5042864;28;20461;-65
2021/12/02 07:55:37;;;;;;;0.32;0.10;;;;;;;;;;5039992;28;20292;-65
2021/12/02 07:58:04;;;;;;;0.45;0.10;;;;;;;;;;5033940;28;20029;-65
2021/12/02 08:00:29;;;;;;;1.00;0.10;;;;;;;;;;5045130;28;20075;-65
2021/12/02 08:02:55;;;;;;;0.90;0.20;;;;;;;;;;5057085;28;20037;-65
2021/12/02 08:05:24;;;;;;;1.45;0.20;;;;;;;;;;5048839;28;20032;-64
2021/12/02 08:07:50;;;;;;;0.50;0.10;;;;;;;;;;5046872;28;20022;-64
2021/12/02 08:10:15;;;;;;;0.20;0.10;;;;;;;;;;5042186;28;20095;-63
2021/12/02 08:12:46;;;;;;;0.73;0.10;;;;;;;;;;5045484;28;20109;-64
2021/12/02 08:15:12;;;;;;;0.57;0.10;;;;;;;;;;5037983;28;20465;-64
2021/12/02 08:17:37;;;;;;;3.42;0.20;;;;;;;;;;5046274;28;20029;-64
2021/12/02 08:20:03;;;;;;;1.88;0.20;;;;;;;;;;5045768;28;20075;-64
2021/12/02 08:22:30;;;;;;;0.55;0.10;;;;;;;;;;5043368;28;20020;-65
2021/12/02 08:24:55;;;;;;;1.05;0.28;;;;;;;;;;5044980;28;20025;-65
2021/12/02 08:27:22;;;;;;;0.47;0.10;;;;;;;;;;5039047;28;20021;-64
2021/12/02 08:29:47;;;;;;;0.65;0.10;;;;;;;;;;5044062;28;20525;-64
2021/12/02 08:32:12;;;;;;;0.87;0.03;;;;;;;;;;5040852;28;20219;-64
2021/12/02 08:34:38;;;;;;;1.07;0.23;;;;;;;;;;5042329;28;20261;-65
2021/12/02 08:37:03;;;;;;;1.23;0.03;;;;;;;;;;5038369;28;20266;-65
2021/12/02 08:39:30;;;;;;;0.35;0.10;;;;;;;;;;5043692;28;20024;-65
2021/12/02 08:41:55;;;;;;;0.80;0.10;;;;;;;;;;5036065;28;20020;-64
2021/12/02 08:44:22;;;;;;;1.17;0.25;;;;;;;;;;5044052;28;20041;-65
2021/12/02 08:46:48;;;;;;;0.75;0.15;;;;;;;;;;5043570;28;20067;-64
2021/12/02 08:49:13;;;;;;;0.90;0.20;;;;;;;;;;5040158;28;20014;-64
2021/12/02 08:51:38;;;;;;;0.30;0.10;;;;;;;;;;5038319;28;20473;-65
2021/12/02 08:54:04;;;;;;;2.53;0.63;;;;;;;;;;5041894;28;20025;-64
2021/12/02 08:56:29;;;;;;;0.75;0.10;;;;;;;;;;5034607;28;20579;-64
2021/12/02 08:58:54;;;;;;;0.98;0.10;;;;;;;;;;5039575;28;20585;-64
2021/12/02 09:01:20;;;;;;;0.30;0.20;;;;;;;;;;5051065;28;20373;-64
2021/12/02 09:03:46;;;;;;;1.15;0.20;;;;;;;;;;5040444;28;20384;-64
2021/12/02 09:06:11;;;;;;;0.65;0.13;;;;;;;;;;5050832;28;20023;-64
2021/12/02 09:08:38;;;;;;;0.95;0.30;;;;;;;;;;5051686;28;20407;-64
2021/12/02 09:11:03;;;;;;;1.02;0.17;;;;;;;;;;5037106;28;20029;-64
2021/12/02 09:13:29;;;;;;;0.40;0.13;;;;;;;;;;5030553;28;20377;-63
2021/12/02 09:15:54;;;;;;;0.43;0.10;;;;;;;;;;5032200;28;20028;-63
2021/12/02 09:18:19;;;;;;;1.33;0.30;;;;;;;;;;5031182;28;20065;-63
2021/12/02 09:20:45;;;;;;;0.03;0.00;;;;;;;;;;5032338;28;20338;-63
2021/12/02 09:23:10;;;;;;;0.93;0.13;;;;;;;;;;5032559;28;20266;-64
2021/12/02 09:25:35;;;;;;;0.87;0.10;;;;;;;;;;5032789;28;20022;-64
2021/12/02 09:28:00;;;;;;;1.58;0.30;;;;;;;;;;5032641;28;20285;-64
2021/12/02 09:30:26;;;;;;;1.17;0.10;;;;;;;;;;5038298;28;20025;-64
2021/12/02 09:32:51;;;;;;;1.13;0.20;;;;;;;;;;5052528;28;20131;-64
2021/12/02 09:35:17;;;;;;;1.02;0.32;;;;;;;;;;5052381;28;20527;-64
2021/12/02 09:37:42;;;;;;;0.23;0.10;;;;;;;;;;5052638;28;20483;-63
2021/12/02 09:40:10;;;;;;;0.40;0.10;;;;;;;;;;5052271;28;20253;-65
2021/12/02 09:42:36;;;;;;;1.02;0.15;;;;;;;;;;5052190;28;20024;-64
2021/12/02 09:45:02;;;;;;;0.98;0.20;;;;;;;;;;5052728;28;20021;-64
2021/12/02 09:47:31;;;;;;;0.95;0.00;;;;;;;;;;5052204;28;20025;-63
2021/12/02 09:50:01;;;;;;;0.17;0.10;;;;;;;;;;5052233;28;20392;-64
2021/12/02 09:52:31;;;;;;;0.90;0.50;;;;;;;;;;5052157;28;20476;-63
2021/12/02 09:55:06;;;;;;;0.68;0.17;;;;;;;;;;5052213;28;20025;-63
2021/12/02 09:57:37;;;;;;;0.98;0.20;;;;;;;;;;5050926;28;20448;-63
2021/12/02 10:00:03;;;;;;;1.05;0.22;;;;;;;;;;5052192;28;20013;-63
2021/12/02 10:02:29;;;;;;;0.57;0.10;;;;;;;;;;5051804;28;20048;-64
2021/12/02 10:04:59;;;;;;;0.28;0.00;;;;;;;;;;5052188;28;20017;-63
2021/12/02 10:10:29;;;;;;;0.32;0.10;;;;;;;;;;5052213;28;20017;-64
2021/12/02 10:13:04;;;;;;;0.73;0.10;;;;;;;;;;5051804;28;20045;-63
2021/12/02 10:15:30;;;;;;;1.35;0.30;;;;;;;;;;5051967;28;20067;-64
2021/12/02 10:17:57;;;;;;;0.98;0.10;;;;;;;;;;5052158;28;20013;-64
2021/12/02 10:20:45;;;;;;;1.27;0.10;;;;;;;;;;5052012;28;20399;-64
2021/12/02 10:26:18;;;;;;;1.25;0.20;;;;;;;;;;5053246;28;20135;-63
2021/12/02 10:28:43;;;;;;;1.55;0.20;;;;;;;;;;5053566;28;20029;-65
2021/12/02 10:31:10;;;;;;;0.75;0.20;;;;;;;;;;5053403;28;20039;-64
2021/12/02 10:33:36;;;;;;;1.42;0.22;;;;;;;;;;5053343;28;20040;-64
2021/12/02 10:36:03;;;;;;;0.52;0.15;;;;;;;;;;5053459;28;20028;-65
2021/12/02 10:38:37;;;;;;;0.47;0.13;;;;;;;;;;5053333;28;20020;-64
2021/12/02 10:41:04;;;;;;;0.10;0.10;;;;;;;;;;5053450;28;20381;-64
2021/12/02 10:43:30;;;;;;;1.10;0.20;;;;;;;;;;5052946;28;20036;-64
2021/12/02 10:46:14;;;;;;;1.40;0.10;;;;;;;;;;5053364;28;20051;-64
2021/12/02 10:48:49;;;;;;;0.43;0.10;;;;;;;;;;5053174;28;20017;-65
2021/12/02 10:51:14;;;;;;;;;;;;;;;;;;5053490;28;20023;-64
2021/12/02 10:53:58;;;;;;;1.08;0.10;;;;;;;;;;5036309;28;19905;-64
2021/12/02 10:56:37;;;;;;;0.90;0.10;;;;;;;;;;5047586;28;20026;-64
2021/12/02 10:59:21;;;;;;;0.75;0.03;;;;;;;;;;5033066;28;20485;-64
2021/12/02 11:01:46;;;;;;;0.38;0.08;;;;;;;;;;5034012;28;20129;-64
2021/12/02 11:04:13;;;;;;;0.87;0.33;;;;;;;;;;5035102;28;20152;-64
2021/12/02 11:06:45;;;;;;;0.50;0.25;;;;;;;;;;5035335;28;20258;-64
2021/12/02 11:09:23;;;;;;;0.65;0.20;;;;;;;;;;5035187;28;20392;-64
2021/12/02 11:12:05;;;;;;;0.88;0.20;;;;;;;;;;5035255;28;20013;-64
2021/12/02 11:14:30;;;;;;;0.52;0.10;;;;;;;;;;5035068;28;20083;-64
2021/12/02 11:17:05;;;;;;;0.55;0.05;;;;;;;;;;5035164;28;20061;-64
2021/12/02 11:19:30;;;;;;;1.38;0.30;;;;;;;;;;5035048;28;20017;-64
2021/12/02 11:22:16;;;;;;;2.00;0.20;;;;;;;;;;5035022;28;20017;-64
2021/12/02 11:24:42;;;;;;;0.73;0.20;;;;;;;;;;5034795;28;20025;-64
2021/12/02 11:27:13;;;;;;;0.40;0.22;;;;;;;;;;5034918;28;20013;-64
2021/12/02 11:29:49;;;;;;;0.28;0.08;;;;;;;;;;5034959;28;20017;-65
2021/12/02 11:32:32;;;;;;;0.85;0.10;;;;;;;;;;5033641;28;20461;-64
2021/12/02 11:35:01;;;;;;;1.00;0.40;;;;;;;;;;5034294;28;20029;-64
2021/12/02 11:37:27;;;;;;;0.85;0.10;;;;;;;;;;5033200;28;20029;-64
2021/12/02 11:39:57;;;;;;;1.38;0.10;;;;;;;;;;5034902;28;20018;-64
2021/12/02 11:42:22;;;;;;;0.57;0.00;;;;;;;;;;5037583;28;20287;-64
2021/12/02 11:44:48;;;;;;;1.90;0.50;;;;;;;;;;5054903;28;20040;-64
2021/12/02 11:47:13;;;;;;;1.13;0.20;;;;;;;;;;5054385;28;20246;-64
2021/12/02 11:49:40;;;;;;;0.63;0.15;;;;;;;;;;5054812;28;20059;-64
2021/12/02 11:52:05;;;;;;;1.17;0.40;;;;;;;;;;5054315;28;20131;-64
2021/12/02 11:54:32;;;;;;;0.10;0.00;;;;;;;;;;5054307;28;20020;-64
2021/12/02 11:56:57;;;;;;;2.00;0.20;;;;;;;;;;5054269;28;20561;-64
2021/12/02 11:59:23;;;;;;;0.32;0.10;;;;;;;;;;5054402;28;20067;-64
2021/12/02 12:01:53;;;;;;;0.95;0.10;;;;;;;;;;5054107;28;20484;-64
2021/12/02 12:04:18;;;;;;;0.98;0.10;;;;;;;;;;5053866;28;20512;-64
2021/12/02 12:06:44;;;;;;;1.63;0.30;;;;;;;;;;5054225;28;20101;-64
2021/12/02 12:09:10;;;;;;;0.10;0.08;;;;;;;;;;5053952;28;20457;-64
2021/12/02 12:11:38;;;;;;;3.28;0.60;;;;;;;;;;5053961;28;20032;-64
2021/12/02 12:14:07;;;;;;;0.88;0.20;;;;;;;;;;5053924;28;20134;-64
2021/12/02 12:16:38;;;;;;;1.02;0.20;;;;;;;;;;5053925;28;20060;-64
2021/12/02 12:19:22;;;;;;;0.57;0.10;;;;;;;;;;5053926;28;20484;-64
2021/12/02 12:21:55;;;;;;;2.55;0.10;;;;;;;;;;5053890;28;20024;-64
2021/12/02 12:24:37;;;;;;;0.88;0.20;;;;;;;;;;5053599;28;20060;-66
2021/12/02 12:27:13;;;;;;;0.85;0.20;;;;;;;;;;5053873;28;20048;-64
2021/12/02 12:29:38;;;;;;;0.77;0.20;;;;;;;;;;5053704;28;20520;-64
2021/12/02 12:32:18;;;;;;;0.85;0.30;;;;;;;;;;5053664;28;20104;-64
2021/12/02 12:34:53;;;;;;;0.45;0.15;;;;;;;;;;5053600;28;20021;-64
2021/12/02 12:37:33;;;;;;;1.55;0.30;;;;;;;;;;5053399;28;20023;-64
2021/12/02 12:40:09;;;;;;;0.10;0.10;;;;;;;;;;5053580;28;20027;-63
2021/12/02 12:42:35;;;;;;;0.60;0.10;;;;;;;;;;5053282;28;20104;-64
2021/12/02 12:45:01;;;;;;;1.05;0.22;;;;;;;;;;5053512;28;20017;-64
2021/12/02 12:47:48;;;;;;;1.10;0.20;;;;;;;;;;5052414;28;20083;-64
2021/12/02 12:50:31;;;;;;;0.80;0.00;;;;;;;;;;5053128;28;20483;-64
2021/12/02 12:53:02;;;;;;;0.38;0.00;;;;;;;;;;5052947;28;20032;-64
2021/12/02 12:55:28;;;;;;;0.13;0.00;;;;;;;;;;5053106;28;20028;-64
2021/12/02 12:58:12;;;;;;;1.02;0.30;;;;;;;;;;5053305;28;20017;-64
2021/12/02 13:00:43;;;;;;;0.52;0.05;;;;;;;;;;5053048;28;20027;-64
2021/12/02 13:03:13;;;;;;;0.85;0.10;;;;;;;;;;5052797;28;20040;-64
2021/12/02 13:05:46;;;;;;;2.22;0.22;;;;;;;;;;5053082;28;20017;-64
2021/12/02 13:08:15;;;;;;;0.50;0.20;;;;;;;;;;5053115;28;20021;-64
2021/12/02 13:10:53;;;;;;;0.98;0.20;;;;;;;;;;5052896;28;20044;-64
2021/12/02 13:13:22;;;;;;;1.05;0.15;;;;;;;;;;5052725;28;20358;-64
2021/12/02 13:15:47;;;;;;;0.50;0.10;;;;;;;;;;5053268;28;20399;-64
2021/12/02 13:18:29;;;;;;;1.30;0.47;;;;;;;;;;5052569;28;20021;-64
2021/12/02 13:20:55;;;;;;;0.73;0.15;;;;;;;;;;5052807;28;20028;-64
2021/12/02 13:23:22;;;;;;;1.13;0.10;;;;;;;;;;5052500;28;20025;-64
2021/12/02 13:25:48;;;;;;;1.27;0.20;;;;;;;;;;5052808;28;20605;-64
2021/12/02 13:28:15;;;;;;;0.65;0.10;;;;;;;;;;5052457;28;20134;-64
2021/12/02 13:30:40;;;;;;;0.77;0.17;;;;;;;;;;5052585;28;20105;-64
2021/12/02 13:33:05;;;;;;;0.00;0.00;;;;;;;;;;5052604;28;20468;-64
2021/12/02 13:35:30;;;;;;;1.10;0.20;;;;;;;;;;5052475;28;20444;-64
2021/12/02 13:38:01;;;;;;;0.40;0.03;;;;;;;;;;5052612;28;20029;-64
2021/12/02 13:40:32;;;;;;;0.40;0.10;;;;;;;;;;5052349;28;20476;-64
2021/12/02 13:42:58;;;;;;;0.10;0.00;;;;;;;;;;5052206;28;20373;-64
2021/12/02 13:45:25;;;;;;;0.70;0.00;;;;;;;;;;5052595;28;20017;-64
2021/12/02 13:47:51;;;;;;;1.40;0.10;;;;;;;;;;5052463;28;20055;-64
2021/12/02 13:50:19;;;;;;;0.75;0.10;;;;;;;;;;5052041;28;20400;-64
2021/12/02 13:52:52;;;;;;;0.10;0.00;;;;;;;;;;5052355;28;20012;-64
2021/12/02 13:55:22;;;;;;;0.20;0.17;;;;;;;;;;5052074;28;20099;-64
2021/12/02 13:57:49;;;;;;;1.02;0.00;;;;;;;;;;5052212;28;20021;-64
2021/12/02 14:00:22;;;;;;;2.40;0.45;;;;;;;;;;5051979;28;20453;-64
2021/12/02 14:02:49;;;;;;;0.65;0.10;;;;;;;;;;5051996;28;20399;-64
2021/12/02 14:05:16;;;;;;;0.17;0.00;;;;;;;;;;5051979;28;20013;-65
2021/12/02 14:07:42;;;;;;;0.55;0.10;;;;;;;;;;5052279;28;20033;-63
2021/12/02 14:10:09;;;;;;;0.82;0.10;;;;;;;;;;5051945;28;20021;-64
2021/12/02 14:12:40;;;;;;;0.80;0.20;;;;;;;;;;5052161;28;20483;-63
2021/12/02 14:15:08;;;;;;;0.17;0.15;;;;;;;;;;5052419;28;20135;-63
2021/12/02 14:17:46;;;;;;;1.48;0.03;;;;;;;;;;5052093;28;20379;-64
2021/12/02 14:20:11;;;;;;;1.40;0.38;;;;;;;;;;5050483;28;20514;-64
2021/12/02 14:22:37;;;;;;;0.70;0.20;;;;;;;;;;5034473;28;20033;-64
2021/12/02 14:25:04;;;;;;;0.55;0.10;;;;;;;;;;5032230;28;20449;-64
2021/12/02 14:27:30;;;;;;;0.52;0.20;;;;;;;;;;5031971;28;20064;-64
2021/12/02 14:30:08;;;;;;;0.50;0.10;;;;;;;;;;5032161;28;20461;-64
2021/12/02 14:32:33;;;;;;;0.10;0.10;;;;;;;;;;5032006;28;20048;-64
2021/12/02 14:35:16;;;;;;;0.98;0.17;;;;;;;;;;5031948;28;20021;-65
2021/12/02 14:37:42;;;;;;;0.68;0.10;;;;;;;;;;5031963;28;20060;-64
2021/12/02 14:40:11;;;;;;;1.48;0.10;;;;;;;;;;5031843;28;20053;-64
2021/12/02 14:42:37;;;;;;;0.75;0.10;;;;;;;;;;5036844;28;20060;-64
2021/12/02 14:45:18;;;;;;;0.20;0.10;;;;;;;;;;5051906;28;20056;-65
2021/12/02 14:47:43;;;;;;;1.23;0.10;;;;;;;;;;5051572;28;20027;-65
2021/12/02 14:50:09;;;;;;;0.57;0.20;;;;;;;;;;5051888;28;20017;-64
2021/12/02 14:52:35;;;;;;;0.52;0.20;;;;;;;;;;5051151;28;20374;-64
2021/12/02 14:55:06;;;;;;;1.02;0.10;;;;;;;;;;5052043;28;20024;-64
2021/12/02 14:57:31;;;;;;;0.10;0.10;;;;;;;;;;5051819;28;20028;-64
2021/12/02 14:59:58;;;;;;;1.17;0.25;;;;;;;;;;5051743;28;20464;-64
2021/12/02 15:02:34;;;;;;;1.63;0.10;;;;;;;;;;5051324;28;20117;-64
2021/12/02 15:05:02;;;;;;;0.32;0.10;;;;;;;;;;5052027;28;20036;-64
2021/12/02 15:07:35;;;;;;;0.98;0.30;;;;;;;;;;5051406;28;20043;-64
2021/12/02 15:10:03;;;;;;;0.68;0.10;;;;;;;;;;5052861;28;20115;-65
2021/12/02 15:12:31;;;;;;;0.17;0.17;;;;;;;;;;5055059;28;20021;-64